sensor_id;sensor_type;location;lat;lon;timestamp;P1;durP1;ratioP1;P2;durP2;ratioP2
70744;SDS011;59284;31.390;34.904;2023-04-01T00:01:39;4.13;;;2.33;;
70744;SDS011;59284;31.390;34.904;2023-04-01T00:04:05;5.23;;;2.87;;
70744;SDS011;59284;31.390;34.904;2023-04-01T00:06:31;3.37;;;1.93;;
70744;SDS011;59284;31.390;34.904;2023-04-01T00:08:57;8.13;;;1.55;;
70744;SDS011;59284;31.390;34.904;2023-04-01T00:11:22;5.10;;;1.80;;
70744;SDS011;59284;31.390;34.904;2023-04-01T00:13:48;7.25;;;2.20;;
70744;SDS011;59284;31.390;34.904;2023-04-01T00:16:14;7.07;;;3.07;;
70744;SDS011;59284;31.390;34.904;2023-04-01T00:18:40;16.95;;;6.75;;
70744;SDS011;59284;31.390;34.904;2023-04-01T00:21:06;5.13;;;2.47;;
70744;SDS011;59284;31.390;34.904;2023-04-01T00:23:32;3.40;;;1.47;;
70744;SDS011;59284;31.390;34.904;2023-04-01T00:26:01;5.13;;;2.17;;
70744;SDS011;59284;31.390;34.904;2023-04-01T00:28:27;9.40;;;4.15;;
70744;SDS011;59284;31.390;34.904;2023-04-01T00:30:53;6.30;;;4.47;;
70744;SDS011;59284;31.390;34.904;2023-04-01T00:33:19;10.90;;;4.25;;
70744;SDS011;59284;31.390;34.904;2023-04-01T00:35:45;4.85;;;2.10;;
70744;SDS011;59284;31.390;34.904;2023-04-01T00:38:11;7.00;;;3.95;;
70744;SDS011;59284;31.390;34.904;2023-04-01T00:40:41;5.53;;;3.30;;
70744;SDS011;59284;31.390;34.904;2023-04-01T00:43:12;9.93;;;3.00;;
70744;SDS011;59284;31.390;34.904;2023-04-01T00:45:41;6.85;;;3.80;;
70744;SDS011;59284;31.390;34.904;2023-04-01T00:50:50;4.30;;;2.70;;
70744;SDS011;59284;31.390;34.904;2023-04-01T00:53:19;4.67;;;2.20;;
70744;SDS011;59284;31.390;34.904;2023-04-01T00:55:49;6.07;;;3.50;;
70744;SDS011;59284;31.390;34.904;2023-04-01T00:58:17;3.13;;;2.08;;
70744;SDS011;59284;31.390;34.904;2023-04-01T01:00:44;9.73;;;3.28;;
70744;SDS011;59284;31.390;34.904;2023-04-01T01:03:11;10.18;;;3.72;;
70744;SDS011;59284;31.390;34.904;2023-04-01T01:10:41;5.30;;;2.88;;
70744;SDS011;59284;31.390;34.904;2023-04-01T01:20:57;5.05;;;2.75;;
70744;SDS011;59284;31.390;34.904;2023-04-01T01:37:16;2.30;;;1.10;;
70744;SDS011;59284;31.390;34.904;2023-04-01T01:39:43;2.35;;;1.13;;
70744;SDS011;59284;31.390;34.904;2023-04-01T01:42:12;7.22;;;3.20;;
70744;SDS011;59284;31.390;34.904;2023-04-01T01:44:39;2.60;;;1.40;;
70744;SDS011;59284;31.390;34.904;2023-04-01T01:47:07;4.82;;;1.00;;
70744;SDS011;59284;31.390;34.904;2023-04-01T01:49:33;3.30;;;1.70;;
70744;SDS011;59284;31.390;34.904;2023-04-01T01:51:59;10.25;;;2.05;;
70744;SDS011;59284;31.390;34.904;2023-04-01T01:54:25;2.17;;;0.87;;
70744;SDS011;59284;31.390;34.904;2023-04-01T01:56:51;6.20;;;2.38;;
70744;SDS011;59284;31.390;34.904;2023-04-01T01:59:30;1.58;;;0.47;;
70744;SDS011;59284;31.390;34.904;2023-04-01T02:01:58;7.10;;;3.50;;
70744;SDS011;59284;31.390;34.904;2023-04-01T02:04:24;3.88;;;1.58;;
70744;SDS011;59284;31.390;34.904;2023-04-01T02:07:01;2.53;;;1.42;;
70744;SDS011;59284;31.390;34.904;2023-04-01T02:09:28;7.60;;;2.83;;
70744;SDS011;59284;31.390;34.904;2023-04-01T02:12:02;3.08;;;1.60;;
70744;SDS011;59284;31.390;34.904;2023-04-01T02:14:35;2.77;;;1.43;;
70744;SDS011;59284;31.390;34.904;2023-04-01T02:17:10;3.88;;;1.77;;
70744;SDS011;59284;31.390;34.904;2023-04-01T02:19:49;8.15;;;2.53;;
70744;SDS011;59284;31.390;34.904;2023-04-01T02:22:43;8.32;;;3.72;;
70744;SDS011;59284;31.390;34.904;2023-04-01T02:25:13;4.47;;;2.85;;
70744;SDS011;59284;31.390;34.904;2023-04-01T02:27:40;6.00;;;3.43;;
70744;SDS011;59284;31.390;34.904;2023-04-01T02:30:08;10.88;;;3.33;;
70744;SDS011;59284;31.390;34.904;2023-04-01T02:32:34;8.00;;;3.60;;
70744;SDS011;59284;31.390;34.904;2023-04-01T02:35:03;12.48;;;3.25;;
70744;SDS011;59284;31.390;34.904;2023-04-01T02:37:35;8.02;;;3.75;;
70744;SDS011;59284;31.390;34.904;2023-04-01T02:40:02;3.87;;;2.07;;
70744;SDS011;59284;31.390;34.904;2023-04-01T02:42:32;6.55;;;3.45;;
70744;SDS011;59284;31.390;34.904;2023-04-01T02:44:58;6.72;;;2.78;;
70744;SDS011;59284;31.390;34.904;2023-04-01T02:47:24;5.22;;;2.78;;
70744;SDS011;59284;31.390;34.904;2023-04-01T02:49:50;6.00;;;3.47;;
70744;SDS011;59284;31.390;34.904;2023-04-01T02:52:16;6.60;;;3.00;;
70744;SDS011;59284;31.390;34.904;2023-04-01T02:54:41;5.90;;;3.10;;
70744;SDS011;59284;31.390;34.904;2023-04-01T02:57:07;5.82;;;2.85;;
70744;SDS011;59284;31.390;34.904;2023-04-01T02:59:33;4.57;;;2.53;;
70744;SDS011;59284;31.390;34.904;2023-04-01T03:01:59;5.85;;;3.10;;
70744;SDS011;59284;31.390;34.904;2023-04-01T03:04:25;3.85;;;2.60;;
70744;SDS011;59284;31.390;34.904;2023-04-01T03:06:50;6.40;;;2.37;;
70744;SDS011;59284;31.390;34.904;2023-04-01T03:09:16;3.60;;;2.10;;
70744;SDS011;59284;31.390;34.904;2023-04-01T03:11:42;4.73;;;1.50;;
70744;SDS011;59284;31.390;34.904;2023-04-01T03:14:08;1.63;;;0.77;;
70744;SDS011;59284;31.390;34.904;2023-04-01T03:16:33;5.40;;;1.87;;
70744;SDS011;59284;31.390;34.904;2023-04-01T03:18:59;3.47;;;2.45;;
70744;SDS011;59284;31.390;34.904;2023-04-01T03:21:27;1.63;;;0.77;;
70744;SDS011;59284;31.390;34.904;2023-04-01T03:23:52;1.53;;;0.50;;
70744;SDS011;59284;31.390;34.904;2023-04-01T03:26:18;7.80;;;1.83;;
70744;SDS011;59284;31.390;34.904;2023-04-01T03:28:44;2.20;;;1.27;;
70744;SDS011;59284;31.390;34.904;2023-04-01T03:31:10;5.18;;;1.70;;
70744;SDS011;59284;31.390;34.904;2023-04-01T03:33:36;1.30;;;0.30;;
70744;SDS011;59284;31.390;34.904;2023-04-01T03:36:02;3.67;;;2.03;;
70744;SDS011;59284;31.390;34.904;2023-04-01T03:38:32;1.27;;;0.40;;
70744;SDS011;59284;31.390;34.904;2023-04-01T03:40:58;6.32;;;1.63;;
70744;SDS011;59284;31.390;34.904;2023-04-01T03:43:24;1.80;;;0.75;;
70744;SDS011;59284;31.390;34.904;2023-04-01T03:45:51;3.53;;;1.63;;
70744;SDS011;59284;31.390;34.904;2023-04-01T03:48:16;3.17;;;1.47;;
70744;SDS011;59284;31.390;34.904;2023-04-01T03:50:42;9.20;;;2.53;;
70744;SDS011;59284;31.390;34.904;2023-04-01T03:53:08;3.28;;;1.80;;
70744;SDS011;59284;31.390;34.904;2023-04-01T03:55:37;3.38;;;2.15;;
70744;SDS011;59284;31.390;34.904;2023-04-01T03:58:04;3.10;;;1.87;;
70744;SDS011;59284;31.390;34.904;2023-04-01T04:00:30;2.20;;;1.45;;
70744;SDS011;59284;31.390;34.904;2023-04-01T04:02:56;4.72;;;2.47;;
70744;SDS011;59284;31.390;34.904;2023-04-01T04:05:22;4.57;;;1.47;;
70744;SDS011;59284;31.390;34.904;2023-04-01T04:07:48;6.30;;;1.65;;
70744;SDS011;59284;31.390;34.904;2023-04-01T04:10:14;2.90;;;1.75;;
70744;SDS011;59284;31.390;34.904;2023-04-01T04:12:40;2.73;;;1.30;;
70744;SDS011;59284;31.390;34.904;2023-04-01T04:15:06;2.33;;;0.93;;
70744;SDS011;59284;31.390;34.904;2023-04-01T04:17:32;2.25;;;0.77;;
70744;SDS011;59284;31.390;34.904;2023-04-01T04:19:58;6.30;;;1.40;;
70744;SDS011;59284;31.390;34.904;2023-04-01T04:22:24;4.32;;;2.15;;
70744;SDS011;59284;31.390;34.904;2023-04-01T04:24:50;1.88;;;1.05;;
70744;SDS011;59284;31.390;34.904;2023-04-01T04:27:15;4.53;;;1.10;;
70744;SDS011;59284;31.390;34.904;2023-04-01T04:29:41;2.47;;;1.10;;
70744;SDS011;59284;31.390;34.904;2023-04-01T04:32:07;1.80;;;1.00;;
70744;SDS011;59284;31.390;34.904;2023-04-01T04:34:33;2.00;;;1.17;;
70744;SDS011;59284;31.390;34.904;2023-04-01T04:36:59;6.13;;;2.00;;
70744;SDS011;59284;31.390;34.904;2023-04-01T04:39:25;6.40;;;1.40;;
70744;SDS011;59284;31.390;34.904;2023-04-01T04:41:51;2.30;;;0.93;;
70744;SDS011;59284;31.390;34.904;2023-04-01T04:44:16;4.85;;;1.75;;
70744;SDS011;59284;31.390;34.904;2023-04-01T04:46:42;2.40;;;0.73;;
70744;SDS011;59284;31.390;34.904;2023-04-01T04:49:08;3.88;;;1.92;;
70744;SDS011;59284;31.390;34.904;2023-04-01T04:51:33;6.27;;;1.73;;
70744;SDS011;59284;31.390;34.904;2023-04-01T04:54:01;2.30;;;1.20;;
70744;SDS011;59284;31.390;34.904;2023-04-01T04:56:27;8.43;;;1.50;;
70744;SDS011;59284;31.390;34.904;2023-04-01T04:58:53;5.60;;;1.50;;
70744;SDS011;59284;31.390;34.904;2023-04-01T05:01:19;2.22;;;1.00;;
70744;SDS011;59284;31.390;34.904;2023-04-01T05:03:45;5.95;;;1.70;;
70744;SDS011;59284;31.390;34.904;2023-04-01T05:06:12;6.60;;;1.80;;
70744;SDS011;59284;31.390;34.904;2023-04-01T05:08:40;4.47;;;2.17;;
70744;SDS011;59284;31.390;34.904;2023-04-01T05:11:07;5.85;;;2.00;;
70744;SDS011;59284;31.390;34.904;2023-04-01T05:13:35;8.05;;;3.53;;
70744;SDS011;59284;31.390;34.904;2023-04-01T05:16:01;6.73;;;1.80;;
70744;SDS011;59284;31.390;34.904;2023-04-01T05:18:27;4.80;;;2.15;;
70744;SDS011;59284;31.390;34.904;2023-04-01T05:20:54;2.72;;;1.05;;
70744;SDS011;59284;31.390;34.904;2023-04-01T05:23:20;2.38;;;1.15;;
70744;SDS011;59284;31.390;34.904;2023-04-01T05:25:50;1.77;;;0.77;;
70744;SDS011;59284;31.390;34.904;2023-04-01T05:28:19;5.07;;;1.95;;
70744;SDS011;59284;31.390;34.904;2023-04-01T05:30:45;3.03;;;2.00;;
70744;SDS011;59284;31.390;34.904;2023-04-01T05:33:11;4.15;;;1.52;;
70744;SDS011;59284;31.390;34.904;2023-04-01T05:35:38;7.93;;;2.40;;
70744;SDS011;59284;31.390;34.904;2023-04-01T05:38:04;5.13;;;2.23;;
70744;SDS011;59284;31.390;34.904;2023-04-01T05:40:30;6.63;;;2.30;;
70744;SDS011;59284;31.390;34.904;2023-04-01T05:42:56;5.78;;;2.13;;
70744;SDS011;59284;31.390;34.904;2023-04-01T05:45:22;4.95;;;1.60;;
70744;SDS011;59284;31.390;34.904;2023-04-01T05:47:47;8.17;;;1.20;;
70744;SDS011;59284;31.390;34.904;2023-04-01T05:50:13;6.38;;;1.67;;
70744;SDS011;59284;31.390;34.904;2023-04-01T05:52:39;3.90;;;1.80;;
70744;SDS011;59284;31.390;34.904;2023-04-01T05:55:04;3.40;;;1.40;;
70744;SDS011;59284;31.390;34.904;2023-04-01T05:57:31;7.17;;;2.23;;
70744;SDS011;59284;31.390;34.904;2023-04-01T05:59:57;4.30;;;2.13;;
70744;SDS011;59284;31.390;34.904;2023-04-01T06:02:22;3.42;;;1.92;;
70744;SDS011;59284;31.390;34.904;2023-04-01T06:04:48;5.75;;;2.20;;
70744;SDS011;59284;31.390;34.904;2023-04-01T06:07:15;6.17;;;2.50;;
70744;SDS011;59284;31.390;34.904;2023-04-01T06:09:42;5.35;;;2.13;;
70744;SDS011;59284;31.390;34.904;2023-04-01T06:19:51;6.53;;;2.65;;
70744;SDS011;59284;31.390;34.904;2023-04-01T06:22:49;6.40;;;3.00;;
70744;SDS011;59284;31.390;34.904;2023-04-01T06:34:19;6.68;;;2.15;;
70744;SDS011;59284;31.390;34.904;2023-04-01T06:37:01;8.80;;;2.55;;
70744;SDS011;59284;31.390;34.904;2023-04-01T06:42:38;7.38;;;2.60;;
70744;SDS011;59284;31.390;34.904;2023-04-01T06:54:10;5.13;;;2.47;;
70744;SDS011;59284;31.390;34.904;2023-04-01T06:56:40;6.53;;;2.28;;
70744;SDS011;59284;31.390;34.904;2023-04-01T06:59:20;2.93;;;1.90;;
70744;SDS011;59284;31.390;34.904;2023-04-01T07:01:49;5.55;;;2.20;;
70744;SDS011;59284;31.390;34.904;2023-04-01T07:04:21;4.40;;;1.92;;
70744;SDS011;59284;31.390;34.904;2023-04-01T07:06:55;5.60;;;2.25;;
70744;SDS011;59284;31.390;34.904;2023-04-01T07:12:21;5.93;;;1.60;;
70744;SDS011;59284;31.390;34.904;2023-04-01T07:14:54;5.38;;;1.98;;
70744;SDS011;59284;31.390;34.904;2023-04-01T07:17:22;4.57;;;2.03;;
70744;SDS011;59284;31.390;34.904;2023-04-01T07:24:51;4.87;;;1.77;;
70744;SDS011;59284;31.390;34.904;2023-04-01T07:27:17;4.35;;;1.55;;
70744;SDS011;59284;31.390;34.904;2023-04-01T07:29:43;5.78;;;1.80;;
70744;SDS011;59284;31.390;34.904;2023-04-01T07:32:30;7.90;;;2.13;;
70744;SDS011;59284;31.390;34.904;2023-04-01T07:35:44;4.13;;;1.43;;
70744;SDS011;59284;31.390;34.904;2023-04-01T07:38:22;3.53;;;1.45;;
70744;SDS011;59284;31.390;34.904;2023-04-01T07:43:34;3.33;;;2.03;;
70744;SDS011;59284;31.390;34.904;2023-04-01T07:46:17;2.90;;;1.52;;
70744;SDS011;59284;31.390;34.904;2023-04-01T07:57:03;4.55;;;1.50;;
70744;SDS011;59284;31.390;34.904;2023-04-01T08:02:34;7.97;;;2.03;;
70744;SDS011;59284;31.390;34.904;2023-04-01T08:07:52;4.53;;;1.65;;
70744;SDS011;59284;31.390;34.904;2023-04-01T08:13:39;3.28;;;1.33;;
70744;SDS011;59284;31.390;34.904;2023-04-01T08:19:17;5.78;;;1.95;;
70744;SDS011;59284;31.390;34.904;2023-04-01T08:21:58;3.22;;;1.85;;
70744;SDS011;59284;31.390;34.904;2023-04-01T08:24:37;3.63;;;1.52;;
70744;SDS011;59284;31.390;34.904;2023-04-01T08:27:09;4.47;;;2.05;;
70744;SDS011;59284;31.390;34.904;2023-04-01T08:29:42;2.87;;;1.10;;
70744;SDS011;59284;31.390;34.904;2023-04-01T08:32:36;5.40;;;1.90;;
70744;SDS011;59284;31.390;34.904;2023-04-01T08:37:52;3.00;;;1.77;;
70744;SDS011;59284;31.390;34.904;2023-04-01T08:54:04;4.43;;;1.63;;
70744;SDS011;59284;31.390;34.904;2023-04-01T08:56:52;4.75;;;1.80;;
70744;SDS011;59284;31.390;34.904;2023-04-01T09:12:59;4.97;;;2.20;;
70744;SDS011;59284;31.390;34.904;2023-04-01T09:24:23;3.53;;;1.50;;
70744;SDS011;59284;31.390;34.904;2023-04-01T09:40:25;5.50;;;1.70;;
70744;SDS011;59284;31.390;34.904;2023-04-01T09:45:47;4.88;;;1.20;;
70744;SDS011;59284;31.390;34.904;2023-04-01T09:48:55;5.63;;;1.80;;
70744;SDS011;59284;31.390;34.904;2023-04-01T10:03:26;4.60;;;1.30;;
70744;SDS011;59284;31.390;34.904;2023-04-01T10:08:41;4.30;;;1.55;;
70744;SDS011;59284;31.390;34.904;2023-04-01T10:25:23;4.20;;;1.25;;
70744;SDS011;59284;31.390;34.904;2023-04-01T10:34:01;3.95;;;1.20;;
70744;SDS011;59284;31.390;34.904;2023-04-01T10:53:37;4.30;;;1.13;;
70744;SDS011;59284;31.390;34.904;2023-04-01T11:23:33;4.88;;;1.60;;
70744;SDS011;59284;31.390;34.904;2023-04-01T11:37:14;6.05;;;1.90;;
70744;SDS011;59284;31.390;34.904;2023-04-01T12:01:59;3.53;;;1.52;;
70744;SDS011;59284;31.390;34.904;2023-04-01T12:04:37;3.73;;;1.93;;
70744;SDS011;59284;31.390;34.904;2023-04-01T12:07:09;3.13;;;1.60;;
70744;SDS011;59284;31.390;34.904;2023-04-01T12:12:20;2.90;;;1.75;;
70744;SDS011;59284;31.390;34.904;2023-04-01T12:36:13;5.07;;;1.92;;
70744;SDS011;59284;31.390;34.904;2023-04-01T12:39:00;4.32;;;2.00;;
70744;SDS011;59284;31.390;34.904;2023-04-01T12:41:42;3.55;;;1.90;;
70744;SDS011;59284;31.390;34.904;2023-04-01T12:44:36;5.82;;;1.60;;
70744;SDS011;59284;31.390;34.904;2023-04-01T12:55:49;4.20;;;1.90;;
70744;SDS011;59284;31.390;34.904;2023-04-01T13:14:47;3.50;;;1.50;;
70744;SDS011;59284;31.390;34.904;2023-04-01T13:27:56;3.75;;;1.60;;
70744;SDS011;59284;31.390;34.904;2023-04-01T13:30:29;3.67;;;1.48;;
70744;SDS011;59284;31.390;34.904;2023-04-01T13:41:44;5.07;;;1.60;;
70744;SDS011;59284;31.390;34.904;2023-04-01T13:44:19;3.47;;;1.45;;
70744;SDS011;59284;31.390;34.904;2023-04-01T13:54:32;8.45;;;3.45;;
70744;SDS011;59284;31.390;34.904;2023-04-01T14:02:44;4.63;;;2.22;;
70744;SDS011;59284;31.390;34.904;2023-04-01T14:18:37;5.07;;;1.60;;
70744;SDS011;59284;31.390;34.904;2023-04-01T14:29:46;4.18;;;1.20;;
70744;SDS011;59284;31.390;34.904;2023-04-01T14:32:32;3.13;;;1.30;;
70744;SDS011;59284;31.390;34.904;2023-04-01T14:35:16;3.72;;;1.35;;
70744;SDS011;59284;31.390;34.904;2023-04-01T14:40:53;3.75;;;1.48;;
70744;SDS011;59284;31.390;34.904;2023-04-01T14:49:02;3.33;;;1.48;;
70744;SDS011;59284;31.390;34.904;2023-04-01T14:51:41;3.65;;;2.00;;
70744;SDS011;59284;31.390;34.904;2023-04-01T14:56:43;7.18;;;1.85;;
70744;SDS011;59284;31.390;34.904;2023-04-01T14:59:13;3.10;;;1.50;;
70744;SDS011;59284;31.390;34.904;2023-04-01T15:01:45;3.22;;;1.42;;
70744;SDS011;59284;31.390;34.904;2023-04-01T15:07:30;4.53;;;1.80;;
70744;SDS011;59284;31.390;34.904;2023-04-01T15:25:00;5.85;;;1.80;;
70744;SDS011;59284;31.390;34.904;2023-04-01T15:27:51;6.50;;;1.73;;
70744;SDS011;59284;31.390;34.904;2023-04-01T15:38:51;4.53;;;1.30;;
70744;SDS011;59284;31.390;34.904;2023-04-01T15:41:29;3.10;;;1.53;;
70744;SDS011;59284;31.390;34.904;2023-04-01T15:44:04;6.72;;;1.95;;
70744;SDS011;59284;31.390;34.904;2023-04-01T15:46:46;4.45;;;1.65;;
70744;SDS011;59284;31.390;34.904;2023-04-01T15:51:58;6.40;;;1.75;;
70744;SDS011;59284;31.390;34.904;2023-04-01T15:57:17;4.65;;;1.58;;
70744;SDS011;59284;31.390;34.904;2023-04-01T16:14:21;3.50;;;1.83;;
70744;SDS011;59284;31.390;34.904;2023-04-01T16:17:17;6.10;;;1.73;;
70744;SDS011;59284;31.390;34.904;2023-04-01T16:19:59;5.30;;;2.10;;
70744;SDS011;59284;31.390;34.904;2023-04-01T16:22:54;6.77;;;2.00;;
70744;SDS011;59284;31.390;34.904;2023-04-01T16:25:40;4.82;;;1.98;;
70744;SDS011;59284;31.390;34.904;2023-04-01T16:31:10;4.88;;;2.22;;
70744;SDS011;59284;31.390;34.904;2023-04-01T16:33:51;9.50;;;2.35;;
70744;SDS011;59284;31.390;34.904;2023-04-01T16:36:23;6.87;;;1.87;;
70744;SDS011;59284;31.390;34.904;2023-04-01T16:39:10;3.80;;;1.98;;
70744;SDS011;59284;31.390;34.904;2023-04-01T16:46:48;3.72;;;1.90;;
70744;SDS011;59284;31.390;34.904;2023-04-01T16:52:29;6.10;;;1.83;;
70744;SDS011;59284;31.390;34.904;2023-04-01T16:55:01;3.25;;;1.95;;
70744;SDS011;59284;31.390;34.904;2023-04-01T16:57:46;5.15;;;1.98;;
70744;SDS011;59284;31.390;34.904;2023-04-01T17:17:59;5.87;;;2.13;;
70744;SDS011;59284;31.390;34.904;2023-04-01T17:20:32;5.05;;;1.65;;
70744;SDS011;59284;31.390;34.904;2023-04-01T17:28:26;2.28;;;1.13;;
70744;SDS011;59284;31.390;34.904;2023-04-01T17:47:21;4.22;;;1.92;;
70744;SDS011;59284;31.390;34.904;2023-04-01T17:58:22;3.73;;;1.47;;
70744;SDS011;59284;31.390;34.904;2023-04-01T18:01:20;3.60;;;1.80;;
70744;SDS011;59284;31.390;34.904;2023-04-01T18:15:21;4.22;;;2.00;;
70744;SDS011;59284;31.390;34.904;2023-04-01T18:18:05;4.20;;;1.27;;
70744;SDS011;59284;31.390;34.904;2023-04-01T18:24:05;5.85;;;1.80;;
70744;SDS011;59284;31.390;34.904;2023-04-01T18:27:07;2.73;;;1.60;;
70744;SDS011;59284;31.390;34.904;2023-04-01T18:29:41;4.82;;;1.90;;
70744;SDS011;59284;31.390;34.904;2023-04-01T18:35:12;3.20;;;1.77;;
70744;SDS011;59284;31.390;34.904;2023-04-01T18:37:47;5.47;;;2.25;;
70744;SDS011;59284;31.390;34.904;2023-04-01T18:40:28;7.47;;;2.70;;
70744;SDS011;59284;31.390;34.904;2023-04-01T18:43:16;9.38;;;2.45;;
70744;SDS011;59284;31.390;34.904;2023-04-01T18:51:41;8.45;;;3.20;;
70744;SDS011;59284;31.390;34.904;2023-04-01T18:54:12;5.53;;;2.57;;
70744;SDS011;59284;31.390;34.904;2023-04-01T18:56:39;7.28;;;2.90;;
70744;SDS011;59284;31.390;34.904;2023-04-01T19:04:36;7.50;;;3.80;;
70744;SDS011;59284;31.390;34.904;2023-04-01T19:10:15;7.53;;;3.50;;
70744;SDS011;59284;31.390;34.904;2023-04-01T19:21:16;6.03;;;2.70;;
70744;SDS011;59284;31.390;34.904;2023-04-01T19:23:53;11.27;;;4.00;;
70744;SDS011;59284;31.390;34.904;2023-04-01T19:32:30;5.82;;;3.50;;
70744;SDS011;59284;31.390;34.904;2023-04-01T19:35:08;6.50;;;3.00;;
70744;SDS011;59284;31.390;34.904;2023-04-01T19:37:57;4.47;;;2.50;;
70744;SDS011;59284;31.390;34.904;2023-04-01T20:11:14;4.60;;;2.10;;
70744;SDS011;59284;31.390;34.904;2023-04-01T20:16:54;4.97;;;2.70;;
70744;SDS011;59284;31.390;34.904;2023-04-01T20:22:38;5.07;;;2.55;;
70744;SDS011;59284;31.390;34.904;2023-04-01T20:31:12;4.83;;;3.00;;
70744;SDS011;59284;31.390;34.904;2023-04-01T20:44:14;9.30;;;2.80;;
70744;SDS011;59284;31.390;34.904;2023-04-01T20:47:15;5.38;;;1.83;;
70744;SDS011;59284;31.390;34.904;2023-04-01T20:55:27;2.92;;;1.80;;
70744;SDS011;59284;31.390;34.904;2023-04-01T20:58:13;5.73;;;2.47;;
70744;SDS011;59284;31.390;34.904;2023-04-01T21:03:38;6.00;;;2.05;;
70744;SDS011;59284;31.390;34.904;2023-04-01T21:12:05;4.90;;;2.10;;
70744;SDS011;59284;31.390;34.904;2023-04-01T21:17:48;6.28;;;2.10;;
70744;SDS011;59284;31.390;34.904;2023-04-01T21:31:39;4.90;;;2.13;;
70744;SDS011;59284;31.390;34.904;2023-04-01T21:48:37;6.68;;;2.83;;
70744;SDS011;59284;31.390;34.904;2023-04-01T22:00:00;4.95;;;3.30;;
70744;SDS011;59284;31.390;34.904;2023-04-01T22:02:52;8.80;;;3.30;;
70744;SDS011;59284;31.390;34.904;2023-04-01T22:05:31;8.23;;;3.70;;
70744;SDS011;59284;31.390;34.904;2023-04-01T22:10:54;10.05;;;4.57;;
70744;SDS011;59284;31.390;34.904;2023-04-01T22:18:46;6.32;;;4.55;;
70744;SDS011;59284;31.390;34.904;2023-04-01T22:23:52;6.93;;;4.03;;
70744;SDS011;59284;31.390;34.904;2023-04-01T22:26:29;9.70;;;4.03;;
70744;SDS011;59284;31.390;34.904;2023-04-01T22:29:03;7.82;;;4.18;;
70744;SDS011;59284;31.390;34.904;2023-04-01T22:34:08;8.33;;;4.27;;
70744;SDS011;59284;31.390;34.904;2023-04-01T22:39:49;5.68;;;4.03;;
70744;SDS011;59284;31.390;34.904;2023-04-01T22:42:42;5.63;;;3.92;;
70744;SDS011;59284;31.390;34.904;2023-04-01T22:50:18;5.97;;;4.47;;
70744;SDS011;59284;31.390;34.904;2023-04-01T22:52:49;7.63;;;4.70;;
70744;SDS011;59284;31.390;34.904;2023-04-01T22:55:23;7.85;;;5.18;;
70744;SDS011;59284;31.390;34.904;2023-04-01T22:58:00;7.75;;;4.75;;
70744;SDS011;59284;31.390;34.904;2023-04-01T23:00:43;6.77;;;4.93;;
70744;SDS011;59284;31.390;34.904;2023-04-01T23:03:15;8.45;;;4.40;;
70744;SDS011;59284;31.390;34.904;2023-04-01T23:05:54;7.65;;;4.97;;
70744;SDS011;59284;31.390;34.904;2023-04-01T23:13:52;11.23;;;5.70;;
70744;SDS011;59284;31.390;34.904;2023-04-01T23:16:28;9.18;;;5.30;;
70744;SDS011;59284;31.390;34.904;2023-04-01T23:19:21;5.20;;;4.05;;
70744;SDS011;59284;31.390;34.904;2023-04-01T23:22:04;5.85;;;4.20;;
70744;SDS011;59284;31.390;34.904;2023-04-01T23:24:45;6.05;;;4.05;;
70744;SDS011;59284;31.390;34.904;2023-04-01T23:29:53;6.55;;;3.78;;
70744;SDS011;59284;31.390;34.904;2023-04-01T23:32:19;7.85;;;3.88;;
70744;SDS011;59284;31.390;34.904;2023-04-01T23:34:51;7.22;;;4.57;;
70744;SDS011;59284;31.390;34.904;2023-04-01T23:37:19;14.03;;;6.83;;
70744;SDS011;59284;31.390;34.904;2023-04-01T23:39:46;11.90;;;6.82;;
70744;SDS011;59284;31.390;34.904;2023-04-01T23:42:20;14.65;;;7.07;;
70744;SDS011;59284;31.390;34.904;2023-04-01T23:44:48;13.30;;;7.00;;
70744;SDS011;59284;31.390;34.904;2023-04-01T23:47:16;15.55;;;8.68;;
70744;SDS011;59284;31.390;34.904;2023-04-01T23:49:48;12.90;;;7.87;;
70744;SDS011;59284;31.390;34.904;2023-04-01T23:52:21;14.13;;;8.07;;
70744;SDS011;59284;31.390;34.904;2023-04-01T23:55:12;14.27;;;8.82;;
